createdAt,value
2018-05-23T00:01:19.640Z,74.29
2018-05-23T00:03:48.064Z,74.24
2018-05-23T00:06:16.562Z,74.69
2018-05-23T00:08:46.070Z,74.58
2018-05-23T00:11:14.598Z,74.20
2018-05-23T00:13:43.094Z,74.92
2018-05-23T00:16:11.722Z,75.06
2018-05-23T00:18:40.985Z,75.50
2018-05-23T00:21:09.474Z,75.65
2018-05-23T00:23:38.428Z,75.74
2018-05-23T00:26:07.010Z,75.45
2018-05-23T00:28:35.501Z,75.18
2018-05-23T00:31:04.455Z,75.02
2018-05-23T00:33:33.870Z,75.27
2018-05-23T00:36:03.165Z,74.80
2018-05-23T00:38:32.657Z,74.41
2018-05-23T00:41:01.923Z,74.35
2018-05-23T00:43:30.597Z,74.25
2018-05-23T00:45:59.156Z,74.21
2018-05-23T00:48:27.876Z,74.24
2018-05-23T00:50:56.451Z,74.07
2018-05-23T00:53:25.386Z,74.07
2018-05-23T00:55:54.645Z,74.34
2018-05-23T00:58:23.133Z,74.43
2018-05-23T01:00:51.710Z,74.25
2018-05-23T01:03:20.390Z,73.77
2018-05-23T01:05:48.902Z,73.43
2018-05-23T01:08:18.338Z,73.37
2018-05-23T01:10:47.687Z,72.96
2018-05-23T01:13:16.367Z,72.83
2018-05-23T01:15:45.398Z,72.83
2018-05-23T01:18:14.665Z,72.79
2018-05-23T01:20:43.205Z,72.83
2018-05-23T01:23:12.745Z,73.01
2018-05-23T01:25:41.259Z,73.08
2018-05-23T01:28:10.072Z,73.44
2018-05-23T01:30:38.634Z,73.37
2018-05-23T01:33:07.487Z,73.79
2018-05-23T01:35:36.006Z,73.80
2018-05-23T01:38:04.582Z,74.37
2018-05-23T01:40:34.739Z,74.90
2018-05-23T01:43:03.245Z,74.93
2018-05-23T01:45:31.947Z,74.49
2018-05-23T01:48:00.454Z,75.72
2018-05-23T01:50:29.160Z,77.07
2018-05-23T01:52:57.837Z,77.63
2018-05-23T01:55:27.095Z,78.68
2018-05-23T01:57:55.815Z,78.03
2018-05-23T02:00:25.854Z,76.93
2018-05-23T02:02:55.134Z,77.08
2018-05-23T02:05:23.638Z,77.04
2018-05-23T02:07:53.121Z,77.98
2018-05-23T02:10:23.202Z,77.87
2018-05-23T02:12:51.705Z,78.53
2018-05-23T02:15:20.269Z,78.21
2018-05-23T02:17:48.758Z,78.37
2018-05-23T02:20:17.331Z,78.20
2018-05-23T02:22:45.989Z,78.71
2018-05-23T02:25:15.233Z,79.00
2018-05-23T02:27:43.741Z,78.67
2018-05-23T02:30:13.286Z,79.15
2018-05-23T02:32:41.941Z,78.42
2018-05-23T02:35:11.386Z,78.46
2018-05-23T02:37:40.122Z,77.54
2018-05-23T02:40:09.430Z,77.64
2018-05-23T02:42:38.778Z,77.61
2018-05-23T02:45:07.330Z,78.56
2018-05-23T02:47:36.000Z,78.29
2018-05-23T02:50:04.839Z,78.30
2018-05-23T02:52:33.766Z,78.17
2018-05-23T02:55:02.270Z,78.39
2018-05-23T02:57:30.786Z,77.60
2018-05-23T02:59:59.583Z,77.63
2018-05-23T03:02:28.106Z,77.97
2018-05-23T03:04:57.437Z,77.48
2018-05-23T03:07:26.082Z,77.26
2018-05-23T03:09:55.554Z,77.12
2018-05-23T03:12:24.298Z,76.97
2018-05-23T03:14:53.066Z,77.33
2018-05-23T03:17:22.463Z,77.33
2018-05-23T03:19:51.932Z,77.59
2018-05-23T03:22:20.630Z,77.88
2018-05-23T03:24:49.204Z,77.01
2018-05-23T03:27:17.739Z,76.78
2018-05-23T03:29:47.261Z,76.54
2018-05-23T03:32:15.974Z,77.03
2018-05-23T03:34:44.478Z,77.09
2018-05-23T03:37:13.249Z,76.61
2018-05-23T03:39:41.758Z,76.91
2018-05-23T03:42:10.257Z,77.19
2018-05-23T03:44:39.882Z,77.37
2018-05-23T03:47:08.394Z,77.04
2018-05-23T03:49:36.894Z,76.66
2018-05-23T03:52:05.474Z,76.47
2018-05-23T03:54:33.982Z,76.18
2018-05-23T03:57:02.732Z,77.13
2018-05-23T03:59:49.236Z,76.92
2018-05-23T04:02:35.739Z,76.50
2018-05-23T04:05:22.109Z,77.20
2018-05-23T04:07:50.622Z,76.79
2018-05-23T04:10:19.177Z,76.96
2018-05-23T04:12:47.734Z,76.75
2018-05-23T04:15:17.083Z,77.44
2018-05-23T04:17:45.594Z,76.62
2018-05-23T04:20:15.168Z,76.49
2018-05-23T04:22:43.854Z,76.02
2018-05-23T04:25:12.357Z,75.99
2018-05-23T04:27:41.128Z,76.75
2018-05-23T04:30:09.911Z,75.53
2018-05-23T04:32:38.418Z,74.70
2018-05-23T04:35:06.965Z,74.18
2018-05-23T04:37:35.524Z,74.16
2018-05-23T04:40:04.142Z,72.64
2018-05-23T04:42:32.980Z,73.17
2018-05-23T04:45:02.257Z,72.97
2018-05-23T04:47:30.766Z,71.57
2018-05-23T04:50:00.077Z,69.73
2018-05-23T04:52:29.553Z,69.90
2018-05-23T04:54:58.968Z,66.84
2018-05-23T04:57:28.635Z,66.90
2018-05-23T04:59:57.133Z,65.26
2018-05-23T05:02:25.899Z,63.74
2018-05-23T05:04:54.553Z,61.32
2018-05-23T05:07:23.043Z,63.49
2018-05-23T05:09:51.618Z,63.50
2018-05-23T05:12:20.170Z,64.01
2018-05-23T05:14:48.670Z,62.89
2018-05-23T05:17:17.929Z,60.87
2018-05-23T05:19:46.697Z,60.11
2018-05-23T05:22:15.346Z,59.23
2018-05-23T05:24:43.853Z,59.18
2018-05-23T05:27:12.586Z,59.62
2018-05-23T05:29:41.275Z,60.45
2018-05-23T05:32:10.695Z,58.74
2018-05-23T05:34:39.634Z,58.51
2018-05-23T05:37:08.321Z,59.02
2018-05-23T05:39:36.821Z,57.63
2018-05-23T05:42:05.521Z,58.66
2018-05-23T05:44:34.023Z,57.42
2018-05-23T05:47:03.346Z,53.57
2018-05-23T05:49:32.193Z,56.78
2018-05-23T05:52:00.693Z,54.34
2018-05-23T05:54:29.958Z,54.09
2018-05-23T05:56:58.727Z,55.85
2018-05-23T05:59:27.313Z,54.56
2018-05-23T06:01:55.804Z,53.14
2018-05-23T06:04:24.514Z,54.89
2018-05-23T06:06:54.559Z,53.47
2018-05-23T06:09:23.997Z,52.66
2018-05-23T06:11:52.556Z,51.34
2018-05-23T06:14:21.049Z,50.16
2018-05-23T06:16:49.545Z,51.97
2018-05-23T06:19:18.081Z,54.07
2018-05-23T06:21:47.338Z,53.76
2018-05-23T06:24:15.833Z,52.59
2018-05-23T06:26:45.428Z,53.25
2018-05-23T06:29:14.198Z,53.82
2018-05-23T06:31:42.698Z,52.13
2018-05-23T06:34:11.413Z,49.45
2018-05-23T06:36:40.690Z,49.71
2018-05-23T06:39:09.361Z,46.39
2018-05-23T06:41:38.302Z,48.23
2018-05-23T06:44:07.569Z,45.66
2018-05-23T06:46:36.062Z,48.69
2018-05-23T06:49:05.381Z,49.63
2018-05-23T06:51:34.830Z,50.95
2018-05-23T06:54:03.369Z,50.34
2018-05-23T06:56:33.057Z,49.33
2018-05-23T06:59:02.529Z,49.61
2018-05-23T07:01:31.104Z,51.88
2018-05-23T07:03:59.830Z,52.30
2018-05-23T07:06:28.337Z,50.06
2018-05-23T07:08:57.676Z,49.71
2018-05-23T07:11:26.435Z,47.79
2018-05-23T07:13:54.934Z,47.74
2018-05-23T07:16:23.426Z,44.58
2018-05-23T07:18:52.705Z,49.09
2018-05-23T07:21:21.207Z,47.99
2018-05-23T07:23:49.693Z,47.91
2018-05-23T07:26:18.366Z,47.75
2018-05-23T07:28:47.023Z,48.05
2018-05-23T07:31:16.472Z,48.73
2018-05-23T07:33:45.018Z,47.06
2018-05-23T07:36:13.735Z,48.14
2018-05-23T07:38:42.238Z,47.65
2018-05-23T07:41:11.857Z,46.61
2018-05-23T07:43:41.861Z,44.70
2018-05-23T07:46:10.575Z,43.77
2018-05-23T07:48:40.098Z,43.51
2018-05-23T07:51:08.813Z,42.13
2018-05-23T07:53:37.332Z,45.43
2018-05-23T07:56:06.014Z,44.83
2018-05-23T07:58:34.666Z,44.74
2018-05-23T08:01:03.223Z,44.92
2018-05-23T08:03:32.506Z,42.62
2018-05-23T08:06:01.786Z,44.49
2018-05-23T08:08:31.794Z,42.20
2018-05-23T08:11:00.710Z,44.18
2018-05-23T08:13:29.213Z,43.60
2018-05-23T08:15:57.919Z,43.19
2018-05-23T08:18:26.770Z,40.00
2018-05-23T08:20:55.289Z,41.80
2018-05-23T08:23:23.777Z,42.74
2018-05-23T08:25:52.720Z,40.88
2018-05-23T08:28:21.986Z,41.30
2018-05-23T08:30:50.478Z,40.94
2018-05-23T08:33:19.026Z,39.21
2018-05-23T08:35:48.230Z,41.68
2018-05-23T08:38:16.721Z,41.12
2018-05-23T08:40:45.635Z,39.47
2018-05-23T08:43:14.998Z,40.93
2018-05-23T08:45:43.692Z,40.89
2018-05-23T08:48:12.250Z,40.86
2018-05-23T08:50:40.742Z,37.53
2018-05-23T08:53:09.233Z,39.55
2018-05-23T08:55:38.158Z,39.87
2018-05-23T08:58:06.686Z,41.48
2018-05-23T09:00:35.350Z,40.77
2018-05-23T09:03:04.016Z,41.10
2018-05-23T09:05:33.276Z,40.88
2018-05-23T09:08:01.773Z,39.45
2018-05-23T09:10:30.495Z,40.11
2018-05-23T09:12:59.948Z,39.15
2018-05-23T09:15:28.733Z,37.99
2018-05-23T09:17:57.418Z,38.97
2018-05-23T09:20:26.005Z,39.56
2018-05-23T09:22:54.518Z,38.61
2018-05-23T09:25:23.161Z,38.14
2018-05-23T09:27:51.640Z,38.34
2018-05-23T09:30:20.161Z,38.53
2018-05-23T09:32:48.854Z,36.92
2018-05-23T09:35:18.118Z,36.74
2018-05-23T09:37:46.614Z,36.61
2018-05-23T09:40:15.686Z,36.67
2018-05-23T09:42:44.190Z,38.80
2018-05-23T09:45:12.965Z,39.34
2018-05-23T09:47:43.462Z,40.18
2018-05-23T09:50:12.050Z,39.82
2018-05-23T09:52:40.551Z,39.75
2018-05-23T09:55:09.585Z,38.49
2018-05-23T09:57:38.014Z,40.34
2018-05-23T10:00:06.590Z,39.74
2018-05-23T10:02:35.502Z,38.15
2018-05-23T10:05:04.034Z,38.73
2018-05-23T10:07:33.291Z,39.86
2018-05-23T10:10:02.214Z,37.17
2018-05-23T10:12:32.250Z,35.45
2018-05-23T10:15:01.602Z,36.13
2018-05-23T10:17:30.416Z,37.09
2018-05-23T10:19:59.722Z,39.09
2018-05-23T10:22:30.003Z,36.92
2018-05-23T10:24:58.830Z,38.07
2018-05-23T10:27:27.374Z,39.08
2018-05-23T10:29:56.013Z,39.00
2018-05-23T10:32:24.704Z,38.00
2018-05-23T10:34:53.394Z,35.64
2018-05-23T10:37:21.909Z,35.62
2018-05-23T10:39:51.055Z,37.17
2018-05-23T10:42:20.326Z,37.62
2018-05-23T10:44:48.831Z,37.66
2018-05-23T10:47:17.509Z,37.26
2018-05-23T10:49:46.030Z,35.64
2018-05-23T10:52:14.537Z,37.64
2018-05-23T10:54:43.262Z,34.67
2018-05-23T10:57:11.826Z,35.16
2018-05-23T10:59:40.287Z,33.78
2018-05-23T11:02:09.009Z,36.04
2018-05-23T11:04:37.510Z,35.89
2018-05-23T11:07:06.961Z,34.31
2018-05-23T11:09:35.874Z,34.22
2018-05-23T11:12:04.415Z,35.51
2018-05-23T11:14:32.917Z,36.23
2018-05-23T11:17:01.776Z,34.23
2018-05-23T11:19:30.379Z,31.71
2018-05-23T11:21:59.589Z,32.72
2018-05-23T11:24:28.372Z,32.62
2018-05-23T11:26:56.882Z,30.07
2018-05-23T11:29:25.378Z,30.66
2018-05-23T11:31:54.686Z,34.50
2018-05-23T11:34:24.129Z,33.20
2018-05-23T11:36:52.630Z,33.64
2018-05-23T11:39:21.357Z,34.52
2018-05-23T11:41:50.610Z,35.13
2018-05-23T11:44:19.229Z,34.29
2018-05-23T11:46:49.001Z,35.29
2018-05-23T11:49:17.509Z,32.46
2018-05-23T11:51:47.509Z,34.18
2018-05-23T11:54:16.853Z,32.06
2018-05-23T11:56:46.127Z,34.61
2018-05-23T11:59:14.669Z,34.52
2018-05-23T12:01:43.240Z,33.32
2018-05-23T12:04:11.746Z,33.96
2018-05-23T12:06:40.427Z,32.92
2018-05-23T12:09:09.223Z,34.08
2018-05-23T12:11:37.907Z,33.51
2018-05-23T12:14:06.419Z,33.73
2018-05-23T12:16:35.478Z,33.88
2018-05-23T12:19:03.982Z,32.86
2018-05-23T12:21:32.650Z,34.43
2018-05-23T12:24:01.182Z,33.80
2018-05-23T12:26:30.442Z,34.46
2018-05-23T12:28:59.014Z,35.70
2018-05-23T12:31:27.674Z,33.30
2018-05-23T12:33:56.166Z,33.44
2018-05-23T12:36:25.042Z,32.89
2018-05-23T12:38:53.757Z,33.18
2018-05-23T12:41:22.253Z,33.01
2018-05-23T12:43:50.742Z,33.39
2018-05-23T12:46:19.310Z,32.94
2018-05-23T12:48:47.983Z,31.52
2018-05-23T12:51:16.545Z,30.75
2018-05-23T12:53:45.293Z,33.33
2018-05-23T12:56:14.569Z,32.07
2018-05-23T12:58:43.069Z,30.14
2018-05-23T13:01:11.619Z,32.17
2018-05-23T13:03:40.109Z,31.92
2018-05-23T13:06:08.602Z,32.27
2018-05-23T13:08:37.386Z,33.26
2018-05-23T13:11:05.906Z,32.44
2018-05-23T13:13:35.173Z,32.30
2018-05-23T13:16:03.738Z,32.83
2018-05-23T13:18:32.420Z,32.66
2018-05-23T13:21:00.917Z,35.04
2018-05-23T13:23:29.830Z,33.07
2018-05-23T13:25:59.864Z,34.24
2018-05-23T13:28:29.141Z,34.29
2018-05-23T13:30:57.829Z,33.88
2018-05-23T13:33:26.584Z,33.49
2018-05-23T13:35:55.093Z,33.56
2018-05-23T13:38:24.018Z,33.19
2018-05-23T13:40:53.292Z,34.25
2018-05-23T13:43:22.654Z,33.99
2018-05-23T13:45:51.439Z,34.87
2018-05-23T13:48:19.958Z,34.81
2018-05-23T13:50:48.710Z,37.28
2018-05-23T13:53:17.566Z,37.51
2018-05-23T13:55:46.076Z,37.92
2018-05-23T13:58:14.714Z,38.35
2018-05-23T14:18:34.189Z,39.39
2018-05-23T14:21:02.879Z,41.02
2018-05-23T14:23:31.573Z,41.68
2018-05-23T14:26:00.383Z,40.96
2018-05-23T14:28:28.904Z,40.01
2018-05-23T14:30:57.619Z,40.98
2018-05-23T14:33:26.189Z,40.37
2018-05-23T14:35:54.774Z,40.32
2018-05-23T14:38:23.566Z,41.75
2018-05-23T14:40:52.130Z,40.62
2018-05-23T14:43:20.641Z,41.56
2018-05-23T14:45:49.139Z,40.54
2018-05-23T14:48:17.874Z,42.18
2018-05-23T14:50:46.390Z,41.14
2018-05-23T14:53:14.894Z,41.02
2018-05-23T14:55:44.041Z,42.61
2018-05-23T14:58:12.470Z,41.37
2018-05-23T15:00:40.901Z,41.92
2018-05-23T15:03:09.355Z,41.56
2018-05-23T15:05:38.554Z,41.27
2018-05-23T15:08:07.745Z,42.61
2018-05-23T15:10:37.272Z,43.20
2018-05-23T15:13:05.737Z,43.92
2018-05-23T15:15:34.922Z,43.35
2018-05-23T15:18:04.656Z,43.40
2018-05-23T15:20:33.145Z,43.00
2018-05-23T15:23:01.604Z,43.53
2018-05-23T15:25:30.849Z,44.21
2018-05-23T15:27:59.267Z,44.77
2018-05-23T15:30:28.472Z,44.43
2018-05-23T15:32:57.720Z,43.21
2018-05-23T15:35:26.141Z,44.00
2018-05-23T15:37:55.365Z,44.78
2018-05-23T15:40:23.989Z,45.84
2018-05-23T15:42:52.425Z,45.46
2018-05-23T15:45:21.664Z,46.61
2018-05-23T15:47:50.155Z,46.78
2018-05-23T15:50:18.590Z,46.82
2018-05-23T15:52:47.041Z,46.91
2018-05-23T15:55:15.849Z,47.44
2018-05-23T15:57:45.042Z,46.67
2018-05-23T16:00:14.249Z,47.74
2018-05-23T16:02:44.521Z,47.48
2018-05-23T16:05:12.961Z,48.04
2018-05-23T16:07:41.390Z,48.32
2018-05-23T16:10:10.129Z,47.51
2018-05-23T16:12:38.565Z,47.01
2018-05-23T16:15:07.032Z,46.86
2018-05-23T16:17:35.513Z,46.89
2018-05-23T16:20:04.057Z,47.29
2018-05-23T16:22:32.497Z,47.60
2018-05-23T16:25:01.127Z,47.64
2018-05-23T16:27:29.570Z,47.94
2018-05-23T16:29:58.792Z,47.20
2018-05-23T16:32:27.273Z,48.20
2018-05-23T16:34:55.696Z,46.94
2018-05-23T16:37:24.133Z,46.84
2018-05-23T16:39:52.625Z,47.67
2018-05-23T16:42:21.134Z,45.80
2018-05-23T16:44:50.288Z,45.95
2018-05-23T16:47:18.991Z,46.89
2018-05-23T16:49:47.425Z,46.72
2018-05-23T16:52:15.850Z,46.68
2018-05-23T16:54:44.465Z,47.39
2018-05-23T16:57:12.901Z,47.15
2018-05-23T16:59:41.333Z,47.69
2018-05-23T17:02:09.809Z,47.25
2018-05-23T17:04:38.241Z,47.96
2018-05-23T17:07:06.679Z,47.68
2018-05-23T17:09:35.153Z,47.54
2018-05-23T17:12:03.589Z,47.49
2018-05-23T17:14:32.020Z,48.34
2018-05-23T17:17:01.473Z,48.40
2018-05-23T17:19:29.938Z,48.87
2018-05-23T17:21:59.133Z,48.88
2018-05-23T17:24:27.729Z,48.79
2018-05-23T17:26:56.337Z,48.77
2018-05-23T17:29:24.790Z,48.90
2018-05-23T17:31:53.295Z,48.99
2018-05-23T17:34:21.879Z,49.02
2018-05-23T17:36:50.331Z,50.22
2018-05-23T17:39:19.004Z,49.80
2018-05-23T17:41:48.246Z,49.80
2018-05-23T17:44:16.694Z,51.11
2018-05-23T17:46:45.393Z,51.48
2018-05-23T17:49:13.855Z,52.66
2018-05-23T17:51:43.343Z,51.37
2018-05-23T17:54:12.626Z,53.29
2018-05-23T17:56:41.305Z,52.09
2018-05-23T17:59:10.857Z,53.15
2018-05-23T18:01:39.716Z,52.38
2018-05-23T18:04:09.077Z,52.56
2018-05-23T18:06:37.557Z,52.73
2018-05-23T18:09:07.149Z,53.08
2018-05-23T18:11:35.585Z,53.61
2018-05-23T18:14:04.052Z,53.58
2018-05-23T18:16:32.553Z,54.40
2018-05-23T18:19:01.749Z,54.61
2018-05-23T18:21:30.183Z,55.23
2018-05-23T18:23:59.793Z,55.65
2018-05-23T18:26:28.225Z,55.82
2018-05-23T18:28:57.426Z,56.27
2018-05-23T18:31:26.854Z,56.60
2018-05-23T18:33:55.289Z,57.46
2018-05-23T18:36:23.722Z,57.92
2018-05-23T18:38:52.189Z,57.95
2018-05-23T18:41:20.628Z,58.36
2018-05-23T18:43:49.073Z,58.95
2018-05-23T18:46:17.554Z,59.53
2018-05-23T18:48:45.994Z,59.93
2018-05-23T18:51:15.187Z,59.86
2018-05-23T18:53:44.609Z,60.35
2018-05-23T18:56:13.054Z,59.35
2018-05-23T18:58:42.396Z,59.01
2018-05-23T19:01:11.197Z,59.05
2018-05-23T19:03:39.636Z,59.74
2018-05-23T19:06:08.845Z,60.59
2018-05-23T19:08:37.783Z,62.00
2018-05-23T19:11:06.229Z,61.92
2018-05-23T19:13:34.672Z,61.65
2018-05-23T19:16:04.080Z,61.63
2018-05-23T19:18:33.286Z,61.28
2018-05-23T19:21:02.536Z,61.69
2018-05-23T19:23:31.459Z,61.21
2018-05-23T19:26:00.861Z,61.27
2018-05-23T19:28:30.422Z,60.90
2018-05-23T19:31:00.122Z,60.24
2018-05-23T19:33:28.593Z,60.40
2018-05-23T19:35:57.017Z,60.16
2018-05-23T19:38:25.488Z,60.69
2018-05-23T19:40:53.962Z,61.55
2018-05-23T19:43:22.393Z,61.31
2018-05-23T19:45:51.825Z,62.02
2018-05-23T19:48:20.253Z,61.85
2018-05-23T19:50:48.694Z,61.90
2018-05-23T19:53:17.369Z,61.94
2018-05-23T19:55:45.814Z,62.22
2018-05-23T19:58:15.007Z,62.58
2018-05-23T20:00:43.481Z,62.83
2018-05-23T20:03:11.910Z,62.99
2018-05-23T20:05:40.342Z,62.76
2018-05-23T20:08:09.136Z,62.50
2018-05-23T20:10:37.573Z,61.36
2018-05-23T20:13:06.041Z,60.28
2018-05-23T20:15:34.525Z,59.72
2018-05-23T20:18:03.018Z,59.22
2018-05-23T20:20:31.509Z,58.87
2018-05-23T20:23:00.068Z,58.51
2018-05-23T20:25:28.560Z,58.99
2018-05-23T20:27:57.835Z,59.20
2018-05-23T20:30:26.410Z,59.26
2018-05-23T20:32:55.673Z,59.01
2018-05-23T20:35:25.678Z,59.04
2018-05-23T20:37:54.491Z,58.73
2018-05-23T20:40:24.490Z,59.04
2018-05-23T20:42:52.982Z,59.50
2018-05-23T20:45:21.738Z,59.83
2018-05-23T20:47:50.243Z,59.30
2018-05-23T20:50:18.898Z,59.59
2018-05-23T20:52:47.754Z,59.61
2018-05-23T20:55:17.154Z,59.66
2018-05-23T20:57:45.822Z,60.15
2018-05-23T21:00:15.314Z,60.16
2018-05-23T21:02:44.072Z,60.32
2018-05-23T21:05:12.769Z,59.98
2018-05-23T21:07:41.850Z,60.17
2018-05-23T21:10:10.360Z,60.46
2018-05-23T21:12:38.857Z,60.36
2018-05-23T21:15:08.186Z,61.11
2018-05-23T21:17:36.899Z,59.91
2018-05-23T21:20:05.398Z,58.79
2018-05-23T21:22:34.101Z,58.56
2018-05-23T21:25:03.367Z,58.26
2018-05-23T21:27:31.948Z,57.68
2018-05-23T21:30:00.518Z,57.46
2018-05-23T21:32:29.111Z,56.71
2018-05-23T21:34:57.791Z,57.06
2018-05-23T21:37:26.342Z,57.32
2018-05-23T21:39:55.753Z,58.08
2018-05-23T21:42:24.478Z,58.20
2018-05-23T21:44:53.026Z,58.04
2018-05-23T21:47:21.593Z,58.13
2018-05-23T21:49:50.846Z,58.15
2018-05-23T21:52:19.627Z,58.54
2018-05-23T21:54:48.174Z,58.89
2018-05-23T21:57:17.474Z,58.38
2018-05-23T21:59:47.150Z,58.08
2018-05-23T22:02:15.654Z,58.75
2018-05-23T22:04:44.914Z,57.03
2018-05-23T22:07:13.683Z,57.19
2018-05-23T22:09:42.182Z,57.28
2018-05-23T22:12:10.840Z,56.88
2018-05-23T22:14:39.401Z,56.73
2018-05-23T22:17:07.904Z,56.75
2018-05-23T22:19:36.512Z,57.33
2018-05-23T22:22:05.295Z,57.12
2018-05-23T22:24:34.625Z,57.29
2018-05-23T22:27:03.090Z,57.25
2018-05-23T22:29:31.638Z,57.08
2018-05-23T22:32:00.132Z,56.92
2018-05-23T22:34:28.831Z,56.67
2018-05-23T22:36:57.506Z,56.36
2018-05-23T22:39:26.002Z,56.68
2018-05-23T22:41:54.666Z,57.04
2018-05-23T22:44:23.210Z,57.35
2018-05-23T22:46:52.554Z,57.22
2018-05-23T22:49:21.050Z,57.67
2018-05-23T22:51:49.884Z,57.95
2018-05-23T22:54:18.389Z,58.10
2018-05-23T22:56:47.384Z,58.44
2018-05-23T22:59:16.118Z,58.55
2018-05-23T23:01:44.876Z,58.46
2018-05-23T23:04:13.873Z,58.82
2018-05-23T23:06:43.880Z,59.18
2018-05-23T23:09:13.490Z,59.80
2018-05-23T23:11:42.275Z,59.88
2018-05-23T23:14:11.202Z,59.70
2018-05-23T23:16:40.776Z,58.83
2018-05-23T23:19:09.511Z,58.07
2018-05-23T23:21:38.246Z,57.44
2018-05-23T23:24:06.934Z,56.63
2018-05-23T23:26:35.517Z,56.03
2018-05-23T23:29:04.066Z,58.40
2018-05-23T23:31:33.318Z,60.24
2018-05-23T23:34:03.322Z,59.49
2018-05-23T23:36:32.011Z,59.85
2018-05-23T23:39:00.514Z,60.28
2018-05-23T23:41:29.168Z,60.29
2018-05-23T23:43:58.026Z,60.79
2018-05-23T23:46:26.748Z,60.58
2018-05-23T23:48:55.254Z,59.79
2018-05-23T23:51:23.951Z,59.94
2018-05-23T23:53:53.946Z,59.20
2018-05-23T23:56:22.720Z,59.80
2018-05-23T23:58:51.910Z,60.37
